Time;durP1;ratioP1;P1;durP2;ratioP2;P2;SDS_P1;SDS_P2;PMS_P1;PMS_P2;Temp;Humidity;BMP_temperature;BMP_pressure;BME280_temperature;BME280_humidity;BME280_pressure;Samples;Min_cycle;Max_cycle;Signal;HPM_P1;HPM_P2
2022/11/21 00:01:56;;;;;;;31.88;18.63;;;;;;;;;;6244130;23;20012;-80
2022/11/21 00:04:21;;;;;;;;;;;;;;;;;;6246877;22;20043;-80
2022/11/21 00:06:49;;;;;;;31.42;19.13;;;;;;;;;;6245997;22;19904;-80
2022/11/21 00:09:14;;;;;;;33.50;19.13;;;;;;;;;;6270435;22;20035;-80
2022/11/21 00:11:39;;;;;;;31.52;19.30;;;;;;;;;;6270048;22;19996;-80
2022/11/21 00:14:05;;;;;;;29.92;18.13;;;;;;;;;;6245607;23;20012;-79
2022/11/21 00:16:30;;;;;;;31.83;18.73;;;;;;;;;;6269609;22;20404;-80
2022/11/21 00:18:56;;;;;;;31.67;18.38;;;;;;;;;;6269339;22;20023;-80
2022/11/21 00:21:21;;;;;;;34.20;19.13;;;;;;;;;;6270226;22;20352;-80
2022/11/21 00:23:47;;;;;;;30.20;18.67;;;;;;;;;;6246012;22;20008;-79
2022/11/21 00:26:13;;;;;;;32.13;18.70;;;;;;;;;;6269933;22;20000;-81
2022/11/21 00:28:38;;;;;;;33.80;18.95;;;;;;;;;;6245512;22;20103;-81
2022/11/21 00:31:04;;;;;;;;;;;;;;;;;;6270178;22;20020;-80
2022/11/21 00:33:29;;;;;;;30.98;17.35;;;;;;;;;;6245559;22;19914;-80
2022/11/21 00:35:55;;;;;;;31.80;18.55;;;;;;;;;;6245374;22;20011;-80
2022/11/21 00:38:23;;;;;;;30.83;18.63;;;;;;;;;;6269660;22;20103;-80
2022/11/21 00:40:48;;;;;;;34.72;18.90;;;;;;;;;;6243907;23;19996;-80
2022/11/21 00:43:14;;;;;;;32.15;18.38;;;;;;;;;;6245267;22;20015;-80
2022/11/21 00:45:39;;;;;;;32.28;18.05;;;;;;;;;;6269245;22;20079;-80
2022/11/21 00:48:05;;;;;;;33.70;19.35;;;;;;;;;;6269586;22;20042;-80
2022/11/21 00:50:30;;;;;;;31.00;17.90;;;;;;;;;;6269172;22;20000;-80
2022/11/21 00:52:56;;;;;;;31.50;17.95;;;;;;;;;;6244073;23;20008;-80
2022/11/21 00:55:22;;;;;;;30.55;18.08;;;;;;;;;;6243755;23;20015;-80
2022/11/21 00:57:47;;;;;;;29.95;18.05;;;;;;;;;;6245405;22;20007;-80
2022/11/21 01:00:13;;;;;;;;;;;;;;;;;;6269505;22;20031;-80
2022/11/21 01:02:38;;;;;;;38.55;21.02;;;;;;;;;;6243683;23;19903;-80
2022/11/21 01:05:04;;;;;;;34.15;20.38;;;;;;;;;;6269011;22;20016;-80
2022/11/21 01:07:29;;;;;;;30.48;18.80;;;;;;;;;;6269091;22;20004;-80
2022/11/21 01:09:55;;;;;;;33.05;18.58;;;;;;;;;;6268817;22;20462;-80
2022/11/21 01:12:20;;;;;;;;;;;;;;;;;;6270104;22;20054;-80
2022/11/21 01:14:46;;;;;;;30.10;18.05;;;;;;;;;;6244872;22;19985;-80
2022/11/21 01:17:11;;;;;;;33.38;18.40;;;;;;;;;;6244968;22;19996;-80
2022/11/21 01:19:37;;;;;;;30.17;18.85;;;;;;;;;;6243389;23;20016;-80
2022/11/21 01:22:02;;;;;;;29.63;17.58;;;;;;;;;;6269148;22;20008;-80
2022/11/21 01:24:28;;;;;;;32.90;18.70;;;;;;;;;;6245067;22;20016;-80
2022/11/21 01:26:54;;;;;;;32.03;18.13;;;;;;;;;;6243397;23;20033;-80
2022/11/21 01:29:19;;;;;;;32.83;18.33;;;;;;;;;;6268287;22;20019;-80
2022/11/21 01:31:45;;;;;;;32.72;17.52;;;;;;;;;;6269045;22;20001;-81
2022/11/21 01:34:10;;;;;;;30.98;17.77;;;;;;;;;;6268707;22;20015;-80
2022/11/21 01:36:36;;;;;;;30.63;16.63;;;;;;;;;;6269118;22;20042;-80
2022/11/21 01:39:02;;;;;;;31.88;17.88;;;;;;;;;;6242894;23;20008;-80
2022/11/21 01:41:35;;;;;;;30.15;17.30;;;;;;;;;;6269064;22;20031;-80
2022/11/21 01:44:01;;;;;;;34.45;17.35;;;;;;;;;;6268767;22;20012;-81
2022/11/21 01:46:26;;;;;;;;;;;;;;;;;;6243876;23;20057;-80
2022/11/21 01:48:52;;;;;;;36.13;18.50;;;;;;;;;;6243021;23;19912;-80
2022/11/21 01:51:20;;;;;;;34.88;18.25;;;;;;;;;;6218111;23;20007;-80
2022/11/21 01:53:48;;;;;;;33.03;18.00;;;;;;;;;;6243038;23;20008;-81
2022/11/21 01:56:14;;;;;;;30.77;18.35;;;;;;;;;;6270153;22;19999;-80
2022/11/21 01:58:39;;;;;;;31.50;18.15;;;;;;;;;;6270837;22;20066;-80
2022/11/21 02:01:05;;;;;;;34.85;19.27;;;;;;;;;;6245649;22;20024;-80
2022/11/21 02:03:31;;;;;;;31.33;18.05;;;;;;;;;;6245218;23;20095;-80
2022/11/21 02:05:57;;;;;;;30.08;17.95;;;;;;;;;;6270996;22;20027;-80
2022/11/21 02:08:22;;;;;;;33.42;17.50;;;;;;;;;;6270374;22;20012;-80
2022/11/21 02:11:01;;;;;;;35.00;17.98;;;;;;;;;;6270809;22;19996;-80
2022/11/21 02:13:27;;;;;;;30.38;16.50;;;;;;;;;;6270673;22;20024;-80
2022/11/21 02:15:52;;;;;;;31.30;17.42;;;;;;;;;;6270814;22;20332;-80
2022/11/21 02:18:18;;;;;;;35.22;18.48;;;;;;;;;;6270971;22;20445;-80
2022/11/21 02:20:44;;;;;;;33.28;18.42;;;;;;;;;;6270531;22;20024;-80
2022/11/21 02:23:09;;;;;;;;;;;;;;;;;;6271461;22;20012;-80
2022/11/21 02:25:35;;;;;;;32.45;18.23;;;;;;;;;;6245023;23;19908;-80
2022/11/21 02:28:01;;;;;;;33.28;19.58;;;;;;;;;;6271065;22;20016;-81
2022/11/21 02:30:26;;;;;;;;;;;;;;;;;;6245636;23;20004;-80
2022/11/21 02:32:52;;;;;;;35.40;17.88;;;;;;;;;;6246815;22;20377;-80
2022/11/21 02:35:17;;;;;;;36.58;18.88;;;;;;;;;;6271026;22;19996;-81
2022/11/21 02:37:46;;;;;;;36.88;19.65;;;;;;;;;;6270625;22;20014;-78
2022/11/21 02:40:14;;;;;;;40.30;19.38;;;;;;;;;;6270343;22;20043;-79
2022/11/21 02:42:47;;;;;;;84.47;21.00;;;;;;;;;;6270549;22;20018;-80
2022/11/21 02:45:21;;;;;;;42.30;19.05;;;;;;;;;;6244895;23;20454;-79
2022/11/21 02:47:49;;;;;;;56.03;20.60;;;;;;;;;;6245057;23;20011;-80
2022/11/21 02:50:14;;;;;;;41.38;19.13;;;;;;;;;;6244834;23;20558;-79
2022/11/21 02:52:40;;;;;;;41.90;20.65;;;;;;;;;;6246500;22;20012;-80
2022/11/21 02:55:05;;;;;;;39.15;19.63;;;;;;;;;;6244584;23;20003;-79
2022/11/21 02:57:31;;;;;;;43.30;21.05;;;;;;;;;;6270403;22;20040;-79
2022/11/21 02:59:56;;;;;;;40.45;20.40;;;;;;;;;;6243955;23;20043;-79
2022/11/21 03:02:22;;;;;;;37.42;19.70;;;;;;;;;;6270325;22;20012;-79
2022/11/21 03:04:47;;;;;;;44.92;19.55;;;;;;;;;;6269878;22;20004;-79
2022/11/21 03:07:38;;;;;;;40.58;19.90;;;;;;;;;;6264598;22;20051;-79
2022/11/21 03:10:03;;;;;;;54.22;26.00;;;;;;;;;;6269892;22;20004;-79
2022/11/21 03:12:29;;;;;;;42.28;20.50;;;;;;;;;;6270010;22;19997;-81
2022/11/21 03:14:54;;;;;;;42.80;19.98;;;;;;;;;;6270301;22;20019;-79
2022/11/21 03:17:20;;;;;;;43.58;20.02;;;;;;;;;;6270186;22;20416;-82
2022/11/21 03:19:45;;;;;;;41.10;20.40;;;;;;;;;;6270311;22;20039;-79
2022/11/21 03:22:11;;;;;;;45.53;21.38;;;;;;;;;;6246130;22;20079;-79
2022/11/21 03:24:36;;;;;;;43.88;19.98;;;;;;;;;;6269844;22;20012;-79
2022/11/21 03:27:02;;;;;;;40.45;19.40;;;;;;;;;;6270130;22;20054;-82
2022/11/21 03:29:27;;;;;;;43.70;20.83;;;;;;;;;;6244342;22;20016;-79
2022/11/21 03:31:53;;;;;;;42.92;20.13;;;;;;;;;;6270129;22;20000;-81
2022/11/21 03:34:18;;;;;;;42.28;20.70;;;;;;;;;;6270360;22;20016;-79
2022/11/21 03:36:44;;;;;;;44.47;20.15;;;;;;;;;;6244417;23;20000;-80
2022/11/21 03:39:09;;;;;;;41.88;20.73;;;;;;;;;;6245967;23;20016;-81
2022/11/21 03:41:35;;;;;;;42.25;20.02;;;;;;;;;;6244592;23;20004;-81
2022/11/21 03:44:00;;;;;;;40.50;19.58;;;;;;;;;;6269945;22;20015;-80
2022/11/21 03:46:26;;;;;;;40.58;19.08;;;;;;;;;;6245101;23;20084;-80
2022/11/21 03:48:52;;;;;;;;;;;;;;;;;;6270330;22;20077;-82
2022/11/21 03:51:17;;;;;;;39.60;18.55;;;;;;;;;;6244225;23;19903;-81
2022/11/21 03:53:43;;;;;;;44.00;20.33;;;;;;;;;;6269674;22;20008;-80
2022/11/21 03:56:08;;;;;;;42.15;20.05;;;;;;;;;;6244477;23;20083;-82
2022/11/21 03:58:34;;;;;;;43.15;20.38;;;;;;;;;;6269767;22;20329;-81
2022/11/21 04:00:59;;;;;;;43.70;20.38;;;;;;;;;;6269791;22;20019;-81
2022/11/21 04:03:25;;;;;;;43.10;20.30;;;;;;;;;;6243886;23;20110;-80
2022/11/21 04:05:50;;;;;;;41.80;19.65;;;;;;;;;;6270003;22;20328;-82
2022/11/21 04:08:16;;;;;;;40.95;20.02;;;;;;;;;;6269635;22;20400;-80
2022/11/21 04:10:51;;;;;;;47.42;24.35;;;;;;;;;;6243907;22;20106;-82
2022/11/21 04:13:17;;;;;;;41.05;20.17;;;;;;;;;;6245114;23;20087;-81
2022/11/21 04:15:45;;;;;;;43.13;20.17;;;;;;;;;;6220701;23;20490;-81
2022/11/21 04:18:11;;;;;;;40.78;19.40;;;;;;;;;;6246747;23;20012;-81
2022/11/21 04:20:37;;;;;;;39.10;18.67;;;;;;;;;;6269632;22;20004;-80
2022/11/21 04:23:02;;;;;;;42.67;20.08;;;;;;;;;;6245410;23;20023;-80
2022/11/21 04:25:28;;;;;;;39.78;18.17;;;;;;;;;;6269986;22;20043;-81
2022/11/21 04:28:00;;;;;;;40.63;19.90;;;;;;;;;;6269545;22;20075;-80
2022/11/21 04:30:25;;;;;;;37.65;18.02;;;;;;;;;;6243954;23;20043;-80
2022/11/21 04:32:51;;;;;;;37.60;17.98;;;;;;;;;;6269575;22;19996;-81
2022/11/21 04:35:17;;;;;;;38.50;18.88;;;;;;;;;;6243713;23;20436;-80
2022/11/21 04:37:42;;;;;;;37.92;19.17;;;;;;;;;;6245257;22;20000;-81
2022/11/21 04:40:08;;;;;;;41.38;20.45;;;;;;;;;;6243699;23;20016;-79
2022/11/21 04:42:33;;;;;;;36.63;18.83;;;;;;;;;;6245557;22;20075;-79
2022/11/21 04:44:59;;;;;;;41.22;20.20;;;;;;;;;;6243613;23;20046;-79
2022/11/21 04:47:24;;;;;;;40.08;20.42;;;;;;;;;;6245058;23;20004;-80
2022/11/21 04:49:50;;;;;;;38.17;20.08;;;;;;;;;;6242389;23;20459;-78
2022/11/21 04:52:15;;;;;;;40.40;20.45;;;;;;;;;;6244924;22;19996;-79
2022/11/21 04:54:41;;;;;;;39.05;19.98;;;;;;;;;;6269166;22;20392;-81
2022/11/21 04:57:06;;;;;;;41.25;20.27;;;;;;;;;;6269139;22;20416;-80
2022/11/21 04:59:32;;;;;;;39.78;17.92;;;;;;;;;;6268183;22;20032;-80
2022/11/21 05:01:57;;;;;;;33.15;16.85;;;;;;;;;;6269105;22;20012;-83
2022/11/21 05:04:23;;;;;;;37.70;17.20;;;;;;;;;;6243877;23;20034;-83
2022/11/21 05:06:48;;;;;;;36.10;17.23;;;;;;;;;;6269105;22;20027;-82
2022/11/21 05:09:14;;;;;;;34.13;17.90;;;;;;;;;;6269222;22;20019;-83
2022/11/21 05:14:25;;;;;;;32.08;16.50;;;;;;;;;;6265415;22;20015;-81
2022/11/21 05:16:51;;;;;;;31.77;16.45;;;;;;;;;;6243593;23;20424;-82
2022/11/21 05:19:16;;;;;;;31.85;16.58;;;;;;;;;;6268865;22;20015;-82
2022/11/21 05:21:41;;;;;;;33.03;16.08;;;;;;;;;;6269419;22;20080;-81
2022/11/21 05:24:07;;;;;;;38.58;19.05;;;;;;;;;;6268749;22;20012;-83
2022/11/21 05:26:32;;;;;;;31.88;16.65;;;;;;;;;;6243160;23;20008;-80
2022/11/21 05:28:58;;;;;;;29.58;17.25;;;;;;;;;;6243073;23;20347;-81
2022/11/21 05:31:23;;;;;;;36.10;18.40;;;;;;;;;;6245069;22;20339;-80
2022/11/21 05:33:49;;;;;;;37.80;24.17;;;;;;;;;;6269730;22;20016;-83
2022/11/21 05:36:14;;;;;;;40.78;24.58;;;;;;;;;;6269523;22;20004;-80
2022/11/21 05:38:40;;;;;;;40.63;25.30;;;;;;;;;;6268500;22;20008;-80
2022/11/21 05:41:05;;;;;;;43.25;25.73;;;;;;;;;;6268722;22;20004;-82
2022/11/21 05:43:46;;;;;;;39.70;25.58;;;;;;;;;;6268192;22;20083;-80
2022/11/21 05:46:16;;;;;;;43.38;25.25;;;;;;;;;;6243465;23;20008;-81
2022/11/21 05:48:41;;;;;;;46.03;27.08;;;;;;;;;;6268257;22;20004;-81
2022/11/21 05:51:07;;;;;;;42.50;25.48;;;;;;;;;;6268820;22;20155;-81
2022/11/21 05:53:33;;;;;;;40.58;25.00;;;;;;;;;;6268372;22;20003;-82
2022/11/21 05:56:02;;;;;;;42.45;24.65;;;;;;;;;;6268328;22;20014;-82
2022/11/21 05:58:28;;;;;;;42.47;24.38;;;;;;;;;;6268105;22;20074;-80
2022/11/21 06:00:57;;;;;;;43.35;28.60;;;;;;;;;;6244785;23;20012;-82
2022/11/21 06:03:31;;;;;;;40.28;25.10;;;;;;;;;;6268759;22;20008;-81
2022/11/21 06:05:58;;;;;;;39.00;23.88;;;;;;;;;;6267095;22;20040;-82
2022/11/21 06:08:24;;;;;;;43.88;24.88;;;;;;;;;;6268837;22;20365;-80
2022/11/21 06:10:49;;;;;;;38.28;24.42;;;;;;;;;;6268510;22;20046;-80
2022/11/21 06:13:21;;;;;;;42.65;23.85;;;;;;;;;;6268967;22;20428;-81
2022/11/21 06:15:50;;;;;;;37.45;22.63;;;;;;;;;;6243295;23;20008;-81
2022/11/21 06:18:16;;;;;;;39.67;23.92;;;;;;;;;;6269034;22;20012;-81
2022/11/21 06:20:41;;;;;;;41.42;24.75;;;;;;;;;;6268611;22;20066;-82
2022/11/21 06:23:07;;;;;;;40.05;23.77;;;;;;;;;;6269239;22;20004;-82
2022/11/21 06:25:32;;;;;;;37.40;23.85;;;;;;;;;;6243308;23;20444;-82
2022/11/21 06:27:58;;;;;;;36.47;23.30;;;;;;;;;;6243988;23;20004;-83
2022/11/21 06:30:24;;;;;;;37.08;23.25;;;;;;;;;;6268861;22;20074;-82
2022/11/21 06:32:49;;;;;;;35.65;22.98;;;;;;;;;;6245251;23;20003;-80
2022/11/21 06:35:14;;;;;;;36.33;24.08;;;;;;;;;;6269039;22;20016;-82
2022/11/21 06:37:40;;;;;;;39.70;22.92;;;;;;;;;;6242969;23;20031;-82
2022/11/21 06:40:06;;;;;;;37.58;23.35;;;;;;;;;;6243163;23;20016;-82
2022/11/21 06:42:31;;;;;;;36.50;22.90;;;;;;;;;;6270322;22;20003;-83
2022/11/21 06:44:57;;;;;;;32.55;22.55;;;;;;;;;;6245082;23;20016;-82
2022/11/21 06:47:22;;;;;;;35.22;22.17;;;;;;;;;;6246694;22;20518;-82
2022/11/21 06:49:48;;;;;;;34.28;22.00;;;;;;;;;;6246912;23;20348;-83
2022/11/21 06:52:13;;;;;;;35.33;21.95;;;;;;;;;;6245248;23;20439;-83
2022/11/21 06:54:39;;;;;;;35.13;21.98;;;;;;;;;;6246805;22;20062;-82
2022/11/21 06:57:04;;;;;;;34.85;21.98;;;;;;;;;;6244317;23;20015;-82
2022/11/21 06:59:30;;;;;;;32.97;21.88;;;;;;;;;;6244654;23;20031;-80
2022/11/21 07:01:55;;;;;;;;;;;;;;;;;;6245028;23;20016;-83
2022/11/21 07:04:21;;;;;;;34.13;21.45;;;;;;;;;;6244767;23;19990;-82
2022/11/21 07:06:46;;;;;;;29.88;20.35;;;;;;;;;;6245817;23;20008;-82
2022/11/21 07:09:11;;;;;;;30.38;19.08;;;;;;;;;;6270172;22;20020;-81
2022/11/21 07:11:37;;;;;;;30.38;19.25;;;;;;;;;;6245031;23;20420;-81
2022/11/21 07:14:03;;;;;;;31.40;20.88;;;;;;;;;;6244612;23;20007;-82
2022/11/21 07:16:30;;;;;;;33.05;20.75;;;;;;;;;;6219135;23;20034;-82
2022/11/21 07:18:56;;;;;;;27.45;18.85;;;;;;;;;;6244150;23;20474;-80
2022/11/21 07:21:21;;;;;;;29.85;19.83;;;;;;;;;;6244994;23;20004;-82
2022/11/21 07:23:47;;;;;;;28.70;18.42;;;;;;;;;;6246069;23;20016;-81
2022/11/21 07:26:12;;;;;;;29.00;18.98;;;;;;;;;;6244694;23;20004;-81
2022/11/21 07:28:38;;;;;;;25.55;17.52;;;;;;;;;;6244546;23;20091;-81
2022/11/21 07:31:03;;;;;;;26.27;17.92;;;;;;;;;;6269972;22;20046;-82
2022/11/21 07:33:29;;;;;;;25.58;17.77;;;;;;;;;;6270551;22;20035;-81
2022/11/21 07:35:56;;;;;;;27.85;17.83;;;;;;;;;;6244894;23;20004;-82
2022/11/21 07:38:23;;;;;;;28.35;17.88;;;;;;;;;;6245117;23;20008;-83
2022/11/21 07:40:49;;;;;;;29.52;17.77;;;;;;;;;;6270115;22;20004;-82
2022/11/21 07:43:14;;;;;;;27.98;17.67;;;;;;;;;;6219062;23;20302;-82
2022/11/21 07:45:40;;;;;;;;;;;;;;;;;;6246468;23;20054;-81
2022/11/21 07:48:05;;;;;;;26.98;17.75;;;;;;;;;;6246219;22;20343;-81
2022/11/21 07:50:31;;;;;;;25.90;17.10;;;;;;;;;;6244879;23;20053;-80
2022/11/21 07:52:57;;;;;;;25.00;17.10;;;;;;;;;;6269840;22;20008;-81
2022/11/21 07:55:23;;;;;;;23.75;16.52;;;;;;;;;;6269628;22;20015;-81
2022/11/21 07:57:55;;;;;;;22.63;15.65;;;;;;;;;;6244564;23;20350;-82
2022/11/21 08:00:21;;;;;;;23.85;16.90;;;;;;;;;;6274365;22;20073;-82
2022/11/21 08:02:46;;;;;;;21.52;15.65;;;;;;;;;;6249495;22;20007;-82
2022/11/21 08:05:12;;;;;;;22.55;16.50;;;;;;;;;;6275035;22;20015;-81
2022/11/21 08:07:37;;;;;;;23.98;16.25;;;;;;;;;;6275050;22;20033;-83
2022/11/21 08:10:03;;;;;;;;;;;;;;;;;;6275527;22;20387;-82
2022/11/21 08:12:28;;;;;;;22.42;15.60;;;;;;;;;;6276287;22;19903;-80
2022/11/21 08:14:54;;;;;;;21.40;15.93;;;;;;;;;;6249374;22;20388;-82
2022/11/21 08:17:19;;;;;;;22.55;16.15;;;;;;;;;;6275039;22;19999;-81
2022/11/21 08:19:45;;;;;;;25.50;17.88;;;;;;;;;;6249163;22;20455;-81
2022/11/21 08:22:10;;;;;;;24.20;15.85;;;;;;;;;;6276534;22;20000;-81
2022/11/21 08:24:36;;;;;;;24.02;16.88;;;;;;;;;;6249088;22;20015;-83
2022/11/21 08:27:01;;;;;;;24.40;16.55;;;;;;;;;;6275086;22;20032;-80
2022/11/21 08:29:27;;;;;;;26.17;17.15;;;;;;;;;;6276174;22;20012;-82
2022/11/21 08:31:52;;;;;;;26.52;16.55;;;;;;;;;;6276588;22;20329;-82
2022/11/21 08:34:18;;;;;;;23.73;17.33;;;;;;;;;;6274655;22;20008;-81
2022/11/21 08:36:43;;;;;;;;;;;;;;;;;;6277311;22;19996;-81
2022/11/21 08:39:08;;;;;;;25.40;16.95;;;;;;;;;;6275749;22;19907;-84
2022/11/21 08:44:18;;;;;;;26.25;17.23;;;;;;;;;;6275078;22;20019;-82
2022/11/21 08:46:43;;;;;;;23.13;16.42;;;;;;;;;;6276251;22;20427;-81
2022/11/21 08:49:09;;;;;;;23.73;16.58;;;;;;;;;;6249023;22;20012;-81
2022/11/21 08:51:35;;;;;;;24.05;16.73;;;;;;;;;;6274815;22;20024;-82
2022/11/21 08:54:00;;;;;;;24.23;16.23;;;;;;;;;;6274170;22;20440;-81
2022/11/21 08:56:26;;;;;;;24.13;16.52;;;;;;;;;;6274884;22;19995;-82
2022/11/21 08:58:52;;;;;;;24.42;16.52;;;;;;;;;;6266314;22;20061;-82
2022/11/21 09:01:17;;;;;;;22.92;16.25;;;;;;;;;;6242839;23;20333;-81
2022/11/21 09:03:43;;;;;;;25.58;16.77;;;;;;;;;;6269389;22;20008;-81
2022/11/21 09:06:08;;;;;;;23.55;16.60;;;;;;;;;;6245233;23;20435;-81
2022/11/21 09:08:33;;;;;;;22.98;16.55;;;;;;;;;;6245583;23;20436;-82
2022/11/21 09:11:06;;;;;;;26.70;17.92;;;;;;;;;;6243696;23;20035;-82
2022/11/21 09:13:31;;;;;;;22.10;15.88;;;;;;;;;;6269265;22;20012;-82
2022/11/21 09:18:41;;;;;;;22.73;17.40;;;;;;;;;;6245029;23;20015;-83
2022/11/21 09:21:06;;;;;;;21.95;16.85;;;;;;;;;;6218208;23;20000;-82
2022/11/21 09:23:32;;;;;;;24.13;17.17;;;;;;;;;;6244955;23;20012;-83
2022/11/21 09:25:58;;;;;;;22.35;16.05;;;;;;;;;;6269026;22;20078;-81
2022/11/21 09:28:24;;;;;;;20.73;15.82;;;;;;;;;;6245528;23;20008;-82
2022/11/21 09:30:49;;;;;;;23.92;15.40;;;;;;;;;;6243117;23;20432;-82
2022/11/21 09:33:18;;;;;;;21.80;15.27;;;;;;;;;;6245959;23;20023;-83
2022/11/21 09:35:43;;;;;;;24.65;17.33;;;;;;;;;;6242959;23;20000;-82
2022/11/21 09:38:09;;;;;;;25.05;17.50;;;;;;;;;;6242748;23;20079;-83
2022/11/21 09:40:34;;;;;;;25.20;18.33;;;;;;;;;;6268917;22;20004;-83
2022/11/21 09:43:00;;;;;;;25.90;18.27;;;;;;;;;;6268453;22;20093;-81
2022/11/21 09:45:36;;;;;;;24.58;17.95;;;;;;;;;;6268811;22;20004;-80
2022/11/21 09:48:11;;;;;;;26.58;17.98;;;;;;;;;;6243223;23;20011;-81
2022/11/21 09:50:38;;;;;;;25.77;18.33;;;;;;;;;;6268810;22;20012;-83
2022/11/21 09:53:15;;;;;;;23.77;17.20;;;;;;;;;;6268811;22;20079;-82
2022/11/21 09:55:44;;;;;;;25.40;17.33;;;;;;;;;;6242943;23;20020;-82
2022/11/21 09:58:30;;;;;;;26.33;17.42;;;;;;;;;;6268592;22;20006;-82
2022/11/21 10:00:56;;;;;;;25.67;18.55;;;;;;;;;;6228601;22;20480;-81
2022/11/21 10:03:21;;;;;;;28.30;21.10;;;;;;;;;;6243583;23;20011;-81
2022/11/21 10:05:48;;;;;;;26.98;18.30;;;;;;;;;;6269706;22;20348;-82
2022/11/21 10:08:34;;;;;;;27.15;17.55;;;;;;;;;;6268807;22;20020;-83
2022/11/21 10:11:16;;;;;;;23.67;16.95;;;;;;;;;;6243621;22;20020;-81
2022/11/21 10:13:42;;;;;;;22.90;17.63;;;;;;;;;;6244663;22;20012;-81
2022/11/21 10:16:11;;;;;;;25.60;18.08;;;;;;;;;;6268682;22;20003;-83
2022/11/21 10:18:42;;;;;;;25.63;17.45;;;;;;;;;;6244955;23;20447;-82
2022/11/21 10:21:20;;;;;;;22.90;17.38;;;;;;;;;;6246368;23;20078;-82
2022/11/21 10:24:06;;;;;;;26.83;17.33;;;;;;;;;;6270081;22;20008;-82
2022/11/21 10:26:43;;;;;;;26.25;18.02;;;;;;;;;;6252226;23;20031;-80
2022/11/21 10:29:11;;;;;;;26.75;17.88;;;;;;;;;;6275803;22;20008;-83
2022/11/21 10:31:37;;;;;;;26.00;17.85;;;;;;;;;;6245464;23;20000;-81
2022/11/21 10:34:04;;;;;;;29.40;18.55;;;;;;;;;;6246064;22;20058;-82
2022/11/21 10:36:32;;;;;;;28.77;19.27;;;;;;;;;;6270033;22;20075;-82
2022/11/21 10:38:59;;;;;;;25.08;17.67;;;;;;;;;;6244403;23;20098;-83
2022/11/21 10:41:25;;;;;;;23.88;17.08;;;;;;;;;;6244463;22;20300;-80
2022/11/21 10:46:59;;;;;;;25.15;17.00;;;;;;;;;;6246099;23;20035;-83
2022/11/21 10:49:25;;;;;;;24.90;17.50;;;;;;;;;;6270371;22;20020;-82
2022/11/21 10:51:52;;;;;;;23.25;16.58;;;;;;;;;;6244623;22;20130;-82
2022/11/21 10:54:32;;;;;;;24.08;17.58;;;;;;;;;;6270554;22;20074;-83
2022/11/21 10:57:15;;;;;;;23.27;17.00;;;;;;;;;;6244287;23;20015;-82
2022/11/21 10:59:40;;;;;;;21.70;16.33;;;;;;;;;;6244181;23;20031;-82
2022/11/21 11:02:12;;;;;;;23.30;15.98;;;;;;;;;;6244685;23;20012;-81
2022/11/21 11:04:37;;;;;;;25.67;16.67;;;;;;;;;;6245270;23;20507;-82
2022/11/21 11:07:21;;;;;;;24.88;16.95;;;;;;;;;;6244839;23;20058;-82
2022/11/21 11:09:47;;;;;;;25.17;17.65;;;;;;;;;;6244679;23;20439;-82
2022/11/21 11:12:15;;;;;;;25.77;17.05;;;;;;;;;;6270563;22;19996;-81
2022/11/21 11:14:41;;;;;;;25.08;17.08;;;;;;;;;;6245897;22;20008;-81
2022/11/21 11:17:12;;;;;;;25.83;17.05;;;;;;;;;;6270552;22;20447;-83
2022/11/21 11:19:37;;;;;;;25.63;17.30;;;;;;;;;;6269994;22;20012;-81
2022/11/21 11:22:03;;;;;;;24.90;16.98;;;;;;;;;;6246158;23;20011;-81
2022/11/21 11:24:28;;;;;;;24.27;16.30;;;;;;;;;;6244342;23;20050;-81
2022/11/21 11:26:58;;;;;;;26.35;17.15;;;;;;;;;;6245614;23;20440;-81
2022/11/21 11:29:28;;;;;;;24.98;16.65;;;;;;;;;;6243737;23;20074;-82
2022/11/21 11:31:57;;;;;;;24.05;16.35;;;;;;;;;;6269985;22;20051;-82
2022/11/21 11:34:24;;;;;;;26.08;17.48;;;;;;;;;;6245338;23;19996;-81
2022/11/21 11:36:54;;;;;;;24.60;16.17;;;;;;;;;;6269818;22;20442;-83
2022/11/21 11:39:34;;;;;;;25.58;17.00;;;;;;;;;;6269742;22;20012;-81
2022/11/21 11:47:32;;;;;;;28.33;17.42;;;;;;;;;;6243919;23;19907;-82
2022/11/21 11:50:10;;;;;;;24.98;17.65;;;;;;;;;;6269508;22;20008;-81
2022/11/21 11:52:41;;;;;;;25.27;17.73;;;;;;;;;;6267210;22;20012;-83
2022/11/21 11:55:08;;;;;;;27.35;17.75;;;;;;;;;;6245605;22;20012;-81
2022/11/21 11:57:34;;;;;;;25.65;17.42;;;;;;;;;;6245257;22;19996;-81
2022/11/21 12:00:07;;;;;;;25.08;17.50;;;;;;;;;;6269449;22;20027;-81
2022/11/21 12:02:44;;;;;;;24.38;16.67;;;;;;;;;;6268809;22;20042;-81
2022/11/21 12:05:12;;;;;;;25.90;17.52;;;;;;;;;;6243841;23;20012;-81
2022/11/21 12:07:39;;;;;;;24.58;16.55;;;;;;;;;;6268954;22;20011;-83
2022/11/21 12:10:10;;;;;;;26.02;17.25;;;;;;;;;;6270070;22;20095;-81
2022/11/21 12:12:37;;;;;;;23.90;16.48;;;;;;;;;;6269577;22;20008;-81
2022/11/21 12:18:06;;;;;;;27.02;18.15;;;;;;;;;;6265727;22;20083;-83
2022/11/21 12:20:38;;;;;;;28.63;17.08;;;;;;;;;;6244196;23;20321;-81
2022/11/21 12:23:31;;;;;;;26.20;17.15;;;;;;;;;;6264560;22;20019;-81
2022/11/21 12:26:16;;;;;;;24.17;15.88;;;;;;;;;;6244054;23;20012;-82
2022/11/21 12:29:00;;;;;;;25.92;16.90;;;;;;;;;;6245216;23;20072;-82
2022/11/21 12:31:31;;;;;;;24.67;16.23;;;;;;;;;;6245278;22;20376;-82
2022/11/21 12:34:06;;;;;;;27.05;16.75;;;;;;;;;;6269257;22;20004;-82
2022/11/21 12:36:34;;;;;;;26.77;17.20;;;;;;;;;;6243942;23;20055;-82
2022/11/21 12:39:12;;;;;;;23.65;16.50;;;;;;;;;;6268994;22;20000;-82
2022/11/21 12:44:35;;;;;;;24.00;16.52;;;;;;;;;;6245348;22;20432;-81
2022/11/21 12:47:16;;;;;;;27.45;17.38;;;;;;;;;;6269199;22;20070;-82
2022/11/21 12:55:29;;;;;;;24.80;15.45;;;;;;;;;;6245324;22;20038;-82
2022/11/21 12:58:00;;;;;;;22.58;15.45;;;;;;;;;;6243978;23;20004;-81
2022/11/21 13:00:29;;;;;;;22.27;14.75;;;;;;;;;;6244565;22;20024;-83
2022/11/21 13:02:57;;;;;;;23.45;16.00;;;;;;;;;;6268963;22;20008;-82
2022/11/21 13:05:24;;;;;;;23.63;15.57;;;;;;;;;;6244662;22;20023;-82
2022/11/21 13:07:59;;;;;;;23.75;14.68;;;;;;;;;;6268897;22;20027;-83
2022/11/21 13:10:24;;;;;;;24.80;15.18;;;;;;;;;;6268975;22;20008;-82
2022/11/21 13:12:51;;;;;;;22.00;14.45;;;;;;;;;;6244818;22;20054;-81
2022/11/21 13:15:35;;;;;;;20.63;13.85;;;;;;;;;;6243146;23;20016;-82
2022/11/21 13:18:04;;;;;;;23.10;14.80;;;;;;;;;;6244798;23;20008;-83
2022/11/21 13:20:30;;;;;;;23.75;14.63;;;;;;;;;;6245049;22;20011;-83
2022/11/21 13:22:56;;;;;;;21.95;15.52;;;;;;;;;;6245094;22;20074;-82
2022/11/21 13:25:31;;;;;;;20.77;14.60;;;;;;;;;;6268718;22;20026;-82
2022/11/21 13:28:26;;;;;;;24.38;13.38;;;;;;;;;;6243036;23;20449;-82
2022/11/21 13:30:52;;;;;;;19.83;13.55;;;;;;;;;;6217500;23;20388;-82
2022/11/21 13:33:38;;;;;;;21.63;14.35;;;;;;;;;;6245262;22;20066;-81
2022/11/21 13:36:05;;;;;;;22.88;16.17;;;;;;;;;;6268249;22;20102;-82
2022/11/21 13:38:30;;;;;;;;;;;;;;;;;;6243650;22;20036;-81
2022/11/21 13:43:40;;;;;;;24.17;14.93;;;;;;;;;;6264961;22;20044;-81
2022/11/21 13:46:05;;;;;;;23.05;14.88;;;;;;;;;;6268461;22;19996;-81
2022/11/21 13:48:49;;;;;;;22.58;15.38;;;;;;;;;;6268920;22;20486;-81
2022/11/21 13:51:15;;;;;;;21.10;14.90;;;;;;;;;;6245406;23;20027;-82
2022/11/21 13:53:44;;;;;;;22.33;15.27;;;;;;;;;;6272396;22;20000;-82
2022/11/21 13:56:10;;;;;;;21.90;14.95;;;;;;;;;;6248198;22;20141;-82
2022/11/21 13:58:49;;;;;;;21.08;14.50;;;;;;;;;;6248669;22;20444;-81
2022/11/21 14:01:23;;;;;;;20.77;14.38;;;;;;;;;;6272226;22;20600;-83
2022/11/21 14:03:49;;;;;;;19.98;14.07;;;;;;;;;;6272147;22;20091;-82
2022/11/21 14:06:23;;;;;;;20.50;14.60;;;;;;;;;;6272083;22;20085;-81
2022/11/21 14:09:08;;;;;;;19.63;13.98;;;;;;;;;;6248209;23;20004;-82
2022/11/21 14:11:47;;;;;;;19.55;13.73;;;;;;;;;;6246211;23;20012;-81
2022/11/21 14:14:26;;;;;;;20.48;14.55;;;;;;;;;;6271781;22;20082;-81
2022/11/21 14:17:01;;;;;;;19.35;13.57;;;;;;;;;;6271839;22;20035;-82
2022/11/21 14:19:26;;;;;;;23.33;15.15;;;;;;;;;;6246521;23;20095;-81
2022/11/21 14:21:54;;;;;;;23.05;14.77;;;;;;;;;;6272234;22;20031;-82
2022/11/21 14:24:19;;;;;;;19.45;14.55;;;;;;;;;;6271801;22;20012;-82
2022/11/21 14:26:45;;;;;;;20.58;13.88;;;;;;;;;;6272626;22;20030;-82
2022/11/21 14:29:27;;;;;;;21.13;15.02;;;;;;;;;;6248225;22;20016;-81
2022/11/21 14:31:53;;;;;;;24.05;15.20;;;;;;;;;;6271941;22;20451;-82
2022/11/21 14:34:25;;;;;;;19.58;14.60;;;;;;;;;;6272250;22;20081;-81
2022/11/21 14:36:51;;;;;;;20.58;15.27;;;;;;;;;;6272067;22;20008;-82
2022/11/21 14:39:16;;;;;;;21.48;15.88;;;;;;;;;;6246604;23;20459;-82
2022/11/21 14:41:42;;;;;;;19.95;14.90;;;;;;;;;;6246557;23;20016;-83
2022/11/21 14:44:07;;;;;;;24.20;16.58;;;;;;;;;;6272078;22;20007;-81
2022/11/21 14:46:34;;;;;;;23.33;16.17;;;;;;;;;;6272497;22;20043;-83
2022/11/21 14:49:11;;;;;;;25.10;16.77;;;;;;;;;;6271974;22;20004;-83
2022/11/21 14:51:37;;;;;;;26.23;17.45;;;;;;;;;;6273090;22;20012;-82
2022/11/21 14:54:02;;;;;;;24.98;17.15;;;;;;;;;;6272630;22;20305;-82
2022/11/21 14:56:28;;;;;;;26.65;19.00;;;;;;;;;;6248195;23;20008;-83